sensor_id;sensor_type;location;lat;lon;timestamp;pressure;altitude;pressure_sealevel;temperature;humidity
37066;BME280;22981;43.080;25.550;2023-07-31T00:00:47;99066.14;;;24.59;55.22
37066;BME280;22981;43.080;25.550;2023-07-31T00:03:14;99068.08;;;24.58;55.40
37066;BME280;22981;43.080;25.550;2023-07-31T00:05:42;99064.37;;;24.54;55.58
37066;BME280;22981;43.080;25.550;2023-07-31T00:08:11;99063.55;;;24.54;55.75
37066;BME280;22981;43.080;25.550;2023-07-31T00:10:38;99060.34;;;24.52;55.98
37066;BME280;22981;43.080;25.550;2023-07-31T00:13:06;99056.56;;;24.50;56.20
37066;BME280;22981;43.080;25.550;2023-07-31T00:15:33;99062.04;;;24.50;56.44
37066;BME280;22981;43.080;25.550;2023-07-31T00:18:01;99054.93;;;24.49;56.62
37066;BME280;22981;43.080;25.550;2023-07-31T00:20:28;99052.20;;;24.49;56.86
37066;BME280;22981;43.080;25.550;2023-07-31T00:22:56;99049.56;;;24.46;57.15
37066;BME280;22981;43.080;25.550;2023-07-31T00:25:24;99043.02;;;24.45;57.35
37066;BME280;22981;43.080;25.550;2023-07-31T00:27:51;99039.81;;;24.43;57.63
37066;BME280;22981;43.080;25.550;2023-07-31T00:30:19;99036.91;;;24.39;57.87
37066;BME280;22981;43.080;25.550;2023-07-31T00:32:46;99038.84;;;24.39;58.21
37066;BME280;22981;43.080;25.550;2023-07-31T00:35:14;99029.88;;;24.36;58.58
37066;BME280;22981;43.080;25.550;2023-07-31T00:37:41;99027.47;;;24.34;59.02
37066;BME280;22981;43.080;25.550;2023-07-31T00:40:09;99021.59;;;24.30;59.43
37066;BME280;22981;43.080;25.550;2023-07-31T00:42:37;99026.33;;;24.27;59.74
37066;BME280;22981;43.080;25.550;2023-07-31T00:45:05;99016.53;;;24.26;59.89
37066;BME280;22981;43.080;25.550;2023-07-31T00:47:32;99014.36;;;24.25;59.96
37066;BME280;22981;43.080;25.550;2023-07-31T00:50:00;99005.91;;;24.24;60.16
37066;BME280;22981;43.080;25.550;2023-07-31T00:52:28;99008.48;;;24.20;60.64
37066;BME280;22981;43.080;25.550;2023-07-31T00:54:55;98999.31;;;24.16;60.82
37066;BME280;22981;43.080;25.550;2023-07-31T00:57:23;98999.38;;;24.14;60.95
37066;BME280;22981;43.080;25.550;2023-07-31T00:59:50;98993.17;;;24.11;61.16
37066;BME280;22981;43.080;25.550;2023-07-31T01:02:18;98988.59;;;24.09;61.24
37066;BME280;22981;43.080;25.550;2023-07-31T01:04:46;98993.83;;;24.08;61.49
37066;BME280;22981;43.080;25.550;2023-07-31T01:07:31;98986.73;;;24.07;61.75
37066;BME280;22981;43.080;25.550;2023-07-31T01:10:17;98978.30;;;24.06;62.06
37066;BME280;22981;43.080;25.550;2023-07-31T01:12:42;98984.09;;;24.04;62.20
37066;BME280;22981;43.080;25.550;2023-07-31T01:15:11;98979.83;;;24.01;62.43
37066;BME280;22981;43.080;25.550;2023-07-31T01:17:44;98983.98;;;23.98;62.77
37066;BME280;22981;43.080;25.550;2023-07-31T01:20:31;98974.52;;;23.95;63.00
37066;BME280;22981;43.080;25.550;2023-07-31T01:28:24;98982.14;;;23.87;63.75
37066;BME280;22981;43.080;25.550;2023-07-31T01:30:52;98978.03;;;23.87;64.01
37066;BME280;22981;43.080;25.550;2023-07-31T01:33:21;98979.97;;;23.87;64.23
37066;BME280;22981;43.080;25.550;2023-07-31T01:35:49;98968.53;;;23.85;64.45
37066;BME280;22981;43.080;25.550;2023-07-31T01:38:21;98975.88;;;23.87;64.76
37066;BME280;22981;43.080;25.550;2023-07-31T01:40:52;98972.57;;;23.87;64.95
37066;BME280;22981;43.080;25.550;2023-07-31T01:43:20;98965.50;;;23.86;64.95
37066;BME280;22981;43.080;25.550;2023-07-31T01:45:48;98970.30;;;23.81;65.25
37066;BME280;22981;43.080;25.550;2023-07-31T01:48:15;98972.56;;;23.79;65.35
37066;BME280;22981;43.080;25.550;2023-07-31T01:50:43;98978.89;;;23.77;65.61
37066;BME280;22981;43.080;25.550;2023-07-31T01:53:10;98970.78;;;23.74;65.81
37066;BME280;22981;43.080;25.550;2023-07-31T01:55:39;98969.75;;;23.72;65.92
37066;BME280;22981;43.080;25.550;2023-07-31T01:58:07;98969.42;;;23.74;66.11
37066;BME280;22981;43.080;25.550;2023-07-31T02:00:34;98961.84;;;23.71;66.32
37066;BME280;22981;43.080;25.550;2023-07-31T02:03:02;98972.60;;;23.67;66.70
37066;BME280;22981;43.080;25.550;2023-07-31T02:05:29;98967.83;;;23.62;67.02
37066;BME280;22981;43.080;25.550;2023-07-31T02:07:57;98962.83;;;23.64;67.28
37066;BME280;22981;43.080;25.550;2023-07-31T02:10:24;98957.13;;;23.63;67.57
37066;BME280;22981;43.080;25.550;2023-07-31T02:12:52;98956.90;;;23.62;67.79
37066;BME280;22981;43.080;25.550;2023-07-31T02:15:20;98957.47;;;23.61;67.99
37066;BME280;22981;43.080;25.550;2023-07-31T02:17:47;98952.33;;;23.60;68.31
37066;BME280;22981;43.080;25.550;2023-07-31T02:20:15;98954.47;;;23.52;68.56
37066;BME280;22981;43.080;25.550;2023-07-31T02:22:42;98947.05;;;23.43;68.64
37066;BME280;22981;43.080;25.550;2023-07-31T02:25:10;98950.41;;;23.40;68.73
37066;BME280;22981;43.080;25.550;2023-07-31T02:27:38;98951.39;;;23.44;68.62
37066;BME280;22981;43.080;25.550;2023-07-31T02:30:06;98951.63;;;23.45;68.70
37066;BME280;22981;43.080;25.550;2023-07-31T02:32:33;98952.99;;;23.45;68.91
37066;BME280;22981;43.080;25.550;2023-07-31T02:35:01;98960.95;;;23.44;69.15
37066;BME280;22981;43.080;25.550;2023-07-31T02:37:29;98957.24;;;23.40;69.40
37066;BME280;22981;43.080;25.550;2023-07-31T02:39:56;98963.15;;;23.34;69.71
37066;BME280;22981;43.080;25.550;2023-07-31T02:42:24;98964.52;;;23.34;69.89
37066;BME280;22981;43.080;25.550;2023-07-31T02:44:51;98968.88;;;23.35;70.09
37066;BME280;22981;43.080;25.550;2023-07-31T02:47:21;98972.17;;;23.34;70.31
37066;BME280;22981;43.080;25.550;2023-07-31T02:49:49;98971.73;;;23.30;70.66
37066;BME280;22981;43.080;25.550;2023-07-31T02:52:16;98976.39;;;23.29;70.96
37066;BME280;22981;43.080;25.550;2023-07-31T02:54:44;98969.83;;;23.30;71.07
37066;BME280;22981;43.080;25.550;2023-07-31T02:57:12;98972.05;;;23.28;71.34
37066;BME280;22981;43.080;25.550;2023-07-31T02:59:39;98976.77;;;23.25;71.67
37066;BME280;22981;43.080;25.550;2023-07-31T03:02:08;98976.16;;;23.28;71.65
37066;BME280;22981;43.080;25.550;2023-07-31T03:04:38;98979.69;;;23.29;71.74
37066;BME280;22981;43.080;25.550;2023-07-31T03:07:06;98981.85;;;23.29;71.87
37066;BME280;22981;43.080;25.550;2023-07-31T03:09:34;98982.98;;;23.28;72.03
37066;BME280;22981;43.080;25.550;2023-07-31T03:12:01;98983.06;;;23.26;72.30
37066;BME280;22981;43.080;25.550;2023-07-31T03:14:29;98982.94;;;23.19;72.67
37066;BME280;22981;43.080;25.550;2023-07-31T03:16:57;98983.51;;;23.19;72.87
37066;BME280;22981;43.080;25.550;2023-07-31T03:19:24;98990.01;;;23.20;73.09
37066;BME280;22981;43.080;25.550;2023-07-31T03:21:52;98989.02;;;23.16;73.28
37066;BME280;22981;43.080;25.550;2023-07-31T03:24:20;98994.48;;;23.16;73.34
37066;BME280;22981;43.080;25.550;2023-07-31T03:26:47;98998.05;;;23.17;73.34
37066;BME280;22981;43.080;25.550;2023-07-31T03:29:15;98991.52;;;23.15;73.33
37066;BME280;22981;43.080;25.550;2023-07-31T03:31:42;98996.41;;;23.16;73.32
37066;BME280;22981;43.080;25.550;2023-07-31T03:34:10;98997.06;;;23.13;73.48
37066;BME280;22981;43.080;25.550;2023-07-31T03:36:38;98998.16;;;23.12;73.57
37066;BME280;22981;43.080;25.550;2023-07-31T03:39:05;99002.58;;;23.10;73.60
37066;BME280;22981;43.080;25.550;2023-07-31T03:41:33;99001.83;;;23.07;73.80
37066;BME280;22981;43.080;25.550;2023-07-31T03:44:00;98998.44;;;23.02;74.12
37066;BME280;22981;43.080;25.550;2023-07-31T03:46:28;99000.61;;;23.02;74.14
37066;BME280;22981;43.080;25.550;2023-07-31T03:48:55;99004.65;;;23.05;74.22
37066;BME280;22981;43.080;25.550;2023-07-31T03:51:23;99007.05;;;23.06;74.27
37066;BME280;22981;43.080;25.550;2023-07-31T03:53:51;99009.30;;;23.04;74.51
37066;BME280;22981;43.080;25.550;2023-07-31T03:56:18;99012.03;;;23.04;74.72
37066;BME280;22981;43.080;25.550;2023-07-31T03:58:46;99015.95;;;23.01;74.87
37066;BME280;22981;43.080;25.550;2023-07-31T04:01:13;99015.67;;;22.99;74.93
37066;BME280;22981;43.080;25.550;2023-07-31T04:03:41;99010.41;;;23.03;74.94
37066;BME280;22981;43.080;25.550;2023-07-31T04:06:08;99016.37;;;23.05;75.00
37066;BME280;22981;43.080;25.550;2023-07-31T04:08:36;99014.92;;;23.08;74.97
37066;BME280;22981;43.080;25.550;2023-07-31T04:11:04;99014.30;;;23.11;74.96
37066;BME280;22981;43.080;25.550;2023-07-31T04:13:32;99016.47;;;23.11;74.95
37066;BME280;22981;43.080;25.550;2023-07-31T04:16:00;99015.61;;;23.13;74.92
37066;BME280;22981;43.080;25.550;2023-07-31T04:18:27;99020.75;;;23.15;74.98
37066;BME280;22981;43.080;25.550;2023-07-31T04:20:57;99026.59;;;23.11;75.16
37066;BME280;22981;43.080;25.550;2023-07-31T04:23:25;99025.60;;;23.07;75.39
37066;BME280;22981;43.080;25.550;2023-07-31T04:25:52;99028.52;;;22.99;75.68
37066;BME280;22981;43.080;25.550;2023-07-31T04:28:20;99035.24;;;22.93;76.06
37066;BME280;22981;43.080;25.550;2023-07-31T04:30:48;99035.80;;;22.92;76.33
37066;BME280;22981;43.080;25.550;2023-07-31T04:33:15;99031.15;;;22.93;76.26
37066;BME280;22981;43.080;25.550;2023-07-31T04:35:50;99038.72;;;22.96;75.97
37066;BME280;22981;43.080;25.550;2023-07-31T04:38:19;99041.80;;;23.03;75.85
37066;BME280;22981;43.080;25.550;2023-07-31T04:40:47;99045.28;;;23.06;75.81
37066;BME280;22981;43.080;25.550;2023-07-31T04:43:14;99042.78;;;23.07;75.91
37066;BME280;22981;43.080;25.550;2023-07-31T04:45:48;99043.53;;;23.10;76.02
37066;BME280;22981;43.080;25.550;2023-07-31T04:48:16;99049.42;;;23.15;76.06
37066;BME280;22981;43.080;25.550;2023-07-31T04:50:44;99054.27;;;23.18;76.07
37066;BME280;22981;43.080;25.550;2023-07-31T04:53:11;99054.31;;;23.15;76.16
37066;BME280;22981;43.080;25.550;2023-07-31T04:55:39;99056.76;;;23.17;76.21
37066;BME280;22981;43.080;25.550;2023-07-31T04:58:07;99057.18;;;23.21;76.22
37066;BME280;22981;43.080;25.550;2023-07-31T05:00:35;99055.73;;;23.24;76.18
37066;BME280;22981;43.080;25.550;2023-07-31T05:03:02;99057.98;;;23.22;76.25
37066;BME280;22981;43.080;25.550;2023-07-31T05:05:31;99049.09;;;23.16;76.50
37066;BME280;22981;43.080;25.550;2023-07-31T05:07:59;99053.84;;;23.13;76.65
37066;BME280;22981;43.080;25.550;2023-07-31T05:10:26;99047.45;;;23.07;77.07
37066;BME280;22981;43.080;25.550;2023-07-31T05:12:54;99049.19;;;23.03;77.46
37066;BME280;22981;43.080;25.550;2023-07-31T05:15:21;99060.67;;;23.02;77.43
37066;BME280;22981;43.080;25.550;2023-07-31T05:17:49;99069.18;;;23.01;77.42
37066;BME280;22981;43.080;25.550;2023-07-31T05:20:17;99069.74;;;23.00;77.49
37066;BME280;22981;43.080;25.550;2023-07-31T05:22:44;99069.09;;;23.03;77.47
37066;BME280;22981;43.080;25.550;2023-07-31T05:25:12;99063.77;;;23.09;77.46
37066;BME280;22981;43.080;25.550;2023-07-31T05:27:39;99055.50;;;23.12;77.35
37066;BME280;22981;43.080;25.550;2023-07-31T05:30:08;99055.13;;;23.16;77.18
37066;BME280;22981;43.080;25.550;2023-07-31T05:32:35;99060.02;;;23.16;77.14
37066;BME280;22981;43.080;25.550;2023-07-31T05:35:03;99056.44;;;23.18;77.19
37066;BME280;22981;43.080;25.550;2023-07-31T05:37:31;99064.86;;;23.19;77.36
37066;BME280;22981;43.080;25.550;2023-07-31T05:39:59;99070.65;;;23.18;77.46
37066;BME280;22981;43.080;25.550;2023-07-31T05:42:26;99069.34;;;23.15;77.68
37066;BME280;22981;43.080;25.550;2023-07-31T05:44:54;99069.66;;;23.14;77.78
37066;BME280;22981;43.080;25.550;2023-07-31T05:47:21;99070.27;;;23.11;77.94
37066;BME280;22981;43.080;25.550;2023-07-31T05:49:49;99080.45;;;23.08;78.11
37066;BME280;22981;43.080;25.550;2023-07-31T05:52:18;99079.41;;;23.06;78.11
37066;BME280;22981;43.080;25.550;2023-07-31T05:54:46;99081.01;;;23.07;78.03
37066;BME280;22981;43.080;25.550;2023-07-31T05:57:14;99078.28;;;23.07;78.12
37066;BME280;22981;43.080;25.550;2023-07-31T05:59:41;99082.89;;;23.09;78.20
37066;BME280;22981;43.080;25.550;2023-07-31T06:02:09;99075.36;;;23.15;78.18
37066;BME280;22981;43.080;25.550;2023-07-31T06:04:36;99073.86;;;23.20;78.12
37066;BME280;22981;43.080;25.550;2023-07-31T06:07:04;99085.53;;;23.23;78.05
37066;BME280;22981;43.080;25.550;2023-07-31T06:09:31;99089.06;;;23.23;77.99
37066;BME280;22981;43.080;25.550;2023-07-31T06:11:59;99086.02;;;23.25;77.99
37066;BME280;22981;43.080;25.550;2023-07-31T06:14:27;99082.91;;;23.29;78.09
37066;BME280;22981;43.080;25.550;2023-07-31T06:16:54;99082.53;;;23.33;77.94
37066;BME280;22981;43.080;25.550;2023-07-31T06:19:22;99086.25;;;23.37;77.67
37066;BME280;22981;43.080;25.550;2023-07-31T06:21:49;99080.78;;;23.37;77.28
37066;BME280;22981;43.080;25.550;2023-07-31T06:24:17;99091.33;;;23.41;76.73
37066;BME280;22981;43.080;25.550;2023-07-31T06:26:46;99094.86;;;23.42;76.60
37066;BME280;22981;43.080;25.550;2023-07-31T06:29:14;99098.16;;;23.41;76.64
37066;BME280;22981;43.080;25.550;2023-07-31T06:31:41;99095.85;;;23.46;76.66
37066;BME280;22981;43.080;25.550;2023-07-31T06:34:09;99097.16;;;23.48;76.52
37066;BME280;22981;43.080;25.550;2023-07-31T06:36:36;99108.45;;;23.56;76.09
37066;BME280;22981;43.080;25.550;2023-07-31T06:39:04;99110.25;;;23.60;75.81
37066;BME280;22981;43.080;25.550;2023-07-31T06:41:31;99108.23;;;23.63;75.62
37066;BME280;22981;43.080;25.550;2023-07-31T06:43:59;99106.30;;;23.64;75.24
37066;BME280;22981;43.080;25.550;2023-07-31T06:46:27;99118.59;;;23.64;75.06
37066;BME280;22981;43.080;25.550;2023-07-31T06:48:54;99115.03;;;23.66;74.98
37066;BME280;22981;43.080;25.550;2023-07-31T06:51:22;99112.54;;;23.67;74.73
37066;BME280;22981;43.080;25.550;2023-07-31T06:53:49;99111.50;;;23.65;74.54
37066;BME280;22981;43.080;25.550;2023-07-31T06:56:17;99104.13;;;23.63;74.19
37066;BME280;22981;43.080;25.550;2023-07-31T06:58:44;99112.89;;;23.63;73.95
37066;BME280;22981;43.080;25.550;2023-07-31T07:01:12;99106.14;;;23.60;73.57
37066;BME280;22981;43.080;25.550;2023-07-31T07:03:39;99114.40;;;23.58;73.23
37066;BME280;22981;43.080;25.550;2023-07-31T07:06:07;99113.09;;;23.55;72.76
37066;BME280;22981;43.080;25.550;2023-07-31T07:08:35;99115.82;;;23.55;72.27
37066;BME280;22981;43.080;25.550;2023-07-31T07:11:02;99113.09;;;23.55;71.96
37066;BME280;22981;43.080;25.550;2023-07-31T07:13:30;99116.09;;;23.56;71.84
37066;BME280;22981;43.080;25.550;2023-07-31T07:15:57;99120.43;;;23.57;71.81
37066;BME280;22981;43.080;25.550;2023-07-31T07:18:25;99114.64;;;23.59;71.57
37066;BME280;22981;43.080;25.550;2023-07-31T07:20:54;99120.84;;;23.62;71.46
37066;BME280;22981;43.080;25.550;2023-07-31T07:23:23;99118.06;;;23.64;71.28
37066;BME280;22981;43.080;25.550;2023-07-31T07:25:51;99117.77;;;23.66;71.25
37066;BME280;22981;43.080;25.550;2023-07-31T07:28:18;99121.25;;;23.69;71.11
37066;BME280;22981;43.080;25.550;2023-07-31T07:30:51;99123.33;;;23.72;71.03
37066;BME280;22981;43.080;25.550;2023-07-31T07:33:19;99114.50;;;23.75;70.98
37066;BME280;22981;43.080;25.550;2023-07-31T07:35:47;99115.25;;;23.78;70.80
37066;BME280;22981;43.080;25.550;2023-07-31T07:38:15;99114.92;;;23.80;70.57
37066;BME280;22981;43.080;25.550;2023-07-31T07:40:43;99114.87;;;23.82;70.22
37066;BME280;22981;43.080;25.550;2023-07-31T07:43:12;99110.63;;;23.87;69.99
37066;BME280;22981;43.080;25.550;2023-07-31T07:45:40;99110.23;;;23.91;69.58
37066;BME280;22981;43.080;25.550;2023-07-31T07:48:07;99117.42;;;23.98;69.16
37066;BME280;22981;43.080;25.550;2023-07-31T07:50:35;99113.97;;;24.04;68.86
37066;BME280;22981;43.080;25.550;2023-07-31T07:53:03;99115.42;;;24.10;68.52
37066;BME280;22981;43.080;25.550;2023-07-31T07:55:31;99118.52;;;24.17;68.29
37066;BME280;22981;43.080;25.550;2023-07-31T07:57:58;99117.49;;;24.24;67.97
37066;BME280;22981;43.080;25.550;2023-07-31T08:00:26;99119.51;;;24.30;67.74
37066;BME280;22981;43.080;25.550;2023-07-31T08:02:54;99113.84;;;24.38;67.22
37066;BME280;22981;43.080;25.550;2023-07-31T08:05:23;99110.45;;;24.41;66.44
37066;BME280;22981;43.080;25.550;2023-07-31T08:07:51;99106.74;;;24.37;66.05
37066;BME280;22981;43.080;25.550;2023-07-31T08:10:19;99108.64;;;24.36;65.86
37066;BME280;22981;43.080;25.550;2023-07-31T08:12:46;99109.78;;;24.35;65.75
37066;BME280;22981;43.080;25.550;2023-07-31T08:15:14;99112.52;;;24.35;65.20
37066;BME280;22981;43.080;25.550;2023-07-31T08:17:41;99111.11;;;24.38;64.96
37066;BME280;22981;43.080;25.550;2023-07-31T08:20:10;99108.61;;;24.39;64.84
37066;BME280;22981;43.080;25.550;2023-07-31T08:22:37;99113.19;;;24.41;64.72
37066;BME280;22981;43.080;25.550;2023-07-31T08:25:06;99116.09;;;24.44;64.57
37066;BME280;22981;43.080;25.550;2023-07-31T08:27:33;99120.88;;;24.50;64.73
37066;BME280;22981;43.080;25.550;2023-07-31T08:30:01;99111.36;;;24.56;64.61
37066;BME280;22981;43.080;25.550;2023-07-31T08:32:28;99112.27;;;24.63;64.60
37066;BME280;22981;43.080;25.550;2023-07-31T08:34:56;99114.74;;;24.70;64.38
37066;BME280;22981;43.080;25.550;2023-07-31T08:37:23;99113.64;;;24.80;64.42
37066;BME280;22981;43.080;25.550;2023-07-31T08:39:51;99112.48;;;25.07;63.59
37066;BME280;22981;43.080;25.550;2023-07-31T08:42:20;99111.23;;;25.45;62.67
37066;BME280;22981;43.080;25.550;2023-07-31T08:44:48;99100.17;;;25.71;61.88
37066;BME280;22981;43.080;25.550;2023-07-31T08:47:16;99096.49;;;26.06;60.70
37066;BME280;22981;43.080;25.550;2023-07-31T08:49:45;99098.36;;;26.29;60.12
37066;BME280;22981;43.080;25.550;2023-07-31T08:52:13;99089.70;;;26.33;59.45
37066;BME280;22981;43.080;25.550;2023-07-31T08:54:41;99090.64;;;26.37;58.91
37066;BME280;22981;43.080;25.550;2023-07-31T08:57:09;99096.98;;;26.43;58.53
37066;BME280;22981;43.080;25.550;2023-07-31T08:59:39;99097.98;;;26.54;57.95
37066;BME280;22981;43.080;25.550;2023-07-31T09:02:08;99093.48;;;26.64;57.59
37066;BME280;22981;43.080;25.550;2023-07-31T09:04:36;99091.33;;;26.69;56.67
37066;BME280;22981;43.080;25.550;2023-07-31T09:07:05;99094.51;;;26.65;56.87
37066;BME280;22981;43.080;25.550;2023-07-31T09:09:35;99093.42;;;26.79;57.05
37066;BME280;22981;43.080;25.550;2023-07-31T09:12:03;99084.41;;;26.84;56.91
37066;BME280;22981;43.080;25.550;2023-07-31T09:14:31;99086.78;;;26.80;56.67
37066;BME280;22981;43.080;25.550;2023-07-31T09:16:59;99091.53;;;26.64;57.14
37066;BME280;22981;43.080;25.550;2023-07-31T09:19:35;99098.76;;;26.48;56.94
37066;BME280;22981;43.080;25.550;2023-07-31T09:22:06;99091.33;;;26.34;57.23
37066;BME280;22981;43.080;25.550;2023-07-31T09:24:35;99092.07;;;26.43;56.74
37066;BME280;22981;43.080;25.550;2023-07-31T09:27:02;99091.19;;;26.66;56.08
37066;BME280;22981;43.080;25.550;2023-07-31T09:29:30;99090.03;;;26.61;55.70
37066;BME280;22981;43.080;25.550;2023-07-31T09:31:57;99090.98;;;26.50;55.68
37066;BME280;22981;43.080;25.550;2023-07-31T09:34:38;99090.38;;;26.44;55.69
37066;BME280;22981;43.080;25.550;2023-07-31T09:37:06;99088.23;;;26.50;55.64
37066;BME280;22981;43.080;25.550;2023-07-31T09:39:45;99085.63;;;26.54;55.62
37066;BME280;22981;43.080;25.550;2023-07-31T09:42:04;99089.17;;;26.54;55.28
37066;BME280;22981;43.080;25.550;2023-07-31T09:44:40;99090.09;;;26.52;55.53
37066;BME280;22981;43.080;25.550;2023-07-31T09:47:22;99083.09;;;26.49;55.51
37066;BME280;22981;43.080;25.550;2023-07-31T09:49:50;99076.41;;;26.43;55.40
37066;BME280;22981;43.080;25.550;2023-07-31T09:52:18;99076.61;;;26.38;55.53
37066;BME280;22981;43.080;25.550;2023-07-31T09:54:45;99073.23;;;26.33;55.45
37066;BME280;22981;43.080;25.550;2023-07-31T09:57:13;99075.16;;;26.26;55.46
37066;BME280;22981;43.080;25.550;2023-07-31T09:59:45;99075.09;;;26.20;55.52
37066;BME280;22981;43.080;25.550;2023-07-31T10:02:15;99074.95;;;26.16;55.59
37066;BME280;22981;43.080;25.550;2023-07-31T10:04:44;99075.95;;;26.12;55.68
37066;BME280;22981;43.080;25.550;2023-07-31T10:07:14;99082.38;;;26.16;55.54
37066;BME280;22981;43.080;25.550;2023-07-31T10:09:43;99070.92;;;26.29;55.34
37066;BME280;22981;43.080;25.550;2023-07-31T10:12:12;99070.75;;;26.34;55.24
37066;BME280;22981;43.080;25.550;2023-07-31T10:14:42;99068.12;;;26.37;54.86
37066;BME280;22981;43.080;25.550;2023-07-31T10:17:10;99060.82;;;26.41;54.93
37066;BME280;22981;43.080;25.550;2023-07-31T10:19:39;99059.62;;;26.72;54.61
37066;BME280;22981;43.080;25.550;2023-07-31T10:22:08;99056.84;;;27.14;54.01
37066;BME280;22981;43.080;25.550;2023-07-31T10:24:37;99046.14;;;27.52;53.22
37066;BME280;22981;43.080;25.550;2023-07-31T10:27:05;99051.56;;;27.79;52.40
37066;BME280;22981;43.080;25.550;2023-07-31T10:29:35;99049.63;;;27.73;52.45
37066;BME280;22981;43.080;25.550;2023-07-31T10:32:03;99053.36;;;27.56;52.45
37066;BME280;22981;43.080;25.550;2023-07-31T10:34:36;99052.88;;;27.36;52.65
37066;BME280;22981;43.080;25.550;2023-07-31T10:37:29;99053.33;;;27.19;52.89
37066;BME280;22981;43.080;25.550;2023-07-31T10:39:41;99062.39;;;27.05;53.29
37066;BME280;22981;43.080;25.550;2023-07-31T10:42:12;99060.17;;;26.92;53.38
37066;BME280;22981;43.080;25.550;2023-07-31T10:44:47;99066.80;;;26.85;53.56
37066;BME280;22981;43.080;25.550;2023-07-31T10:47:15;99060.03;;;26.83;53.50
37066;BME280;22981;43.080;25.550;2023-07-31T10:49:45;99054.09;;;26.87;53.50
37066;BME280;22981;43.080;25.550;2023-07-31T10:52:16;99060.30;;;26.96;53.41
37066;BME280;22981;43.080;25.550;2023-07-31T10:54:43;99051.53;;;27.03;53.09
37066;BME280;22981;43.080;25.550;2023-07-31T10:57:21;99042.48;;;27.08;52.79
37066;BME280;22981;43.080;25.550;2023-07-31T10:59:49;99054.89;;;27.14;52.97
37066;BME280;22981;43.080;25.550;2023-07-31T11:02:26;99047.34;;;27.17;52.56
37066;BME280;22981;43.080;25.550;2023-07-31T11:05:11;99052.14;;;27.14;52.52
37066;BME280;22981;43.080;25.550;2023-07-31T11:07:49;99050.73;;;27.08;52.99
37066;BME280;22981;43.080;25.550;2023-07-31T11:10:18;99047.28;;;26.99;53.22
37066;BME280;22981;43.080;25.550;2023-07-31T11:12:46;99046.92;;;26.94;53.30
37066;BME280;22981;43.080;25.550;2023-07-31T11:15:14;99047.02;;;26.92;53.05
37066;BME280;22981;43.080;25.550;2023-07-31T11:17:42;99043.48;;;26.97;53.01
37066;BME280;22981;43.080;25.550;2023-07-31T11:20:10;99040.06;;;27.01;52.90
37066;BME280;22981;43.080;25.550;2023-07-31T11:22:37;99042.14;;;27.04;52.92
37066;BME280;22981;43.080;25.550;2023-07-31T11:25:05;99040.89;;;27.07;53.18
37066;BME280;22981;43.080;25.550;2023-07-31T11:27:38;99036.01;;;27.13;53.27
37066;BME280;22981;43.080;25.550;2023-07-31T11:30:03;99033.95;;;27.16;53.11
37066;BME280;22981;43.080;25.550;2023-07-31T11:32:31;99025.27;;;27.26;52.79
37066;BME280;22981;43.080;25.550;2023-07-31T11:35:01;99026.10;;;27.51;52.27
37066;BME280;22981;43.080;25.550;2023-07-31T11:37:45;99021.39;;;27.58;51.56
37066;BME280;22981;43.080;25.550;2023-07-31T11:40:17;99016.92;;;27.53;51.57
37066;BME280;22981;43.080;25.550;2023-07-31T11:42:47;99009.48;;;27.48;51.28
37066;BME280;22981;43.080;25.550;2023-07-31T11:45:15;99012.59;;;27.46;51.23
37066;BME280;22981;43.080;25.550;2023-07-31T11:47:42;99005.25;;;27.68;51.01
37066;BME280;22981;43.080;25.550;2023-07-31T11:50:11;99003.42;;;27.97;50.58
37066;BME280;22981;43.080;25.550;2023-07-31T11:52:41;98996.94;;;28.24;50.06
37066;BME280;22981;43.080;25.550;2023-07-31T11:55:09;99007.33;;;28.49;49.71
37066;BME280;22981;43.080;25.550;2023-07-31T11:57:39;98994.95;;;28.70;49.49
37066;BME280;22981;43.080;25.550;2023-07-31T12:00:09;98998.56;;;28.81;48.96
37066;BME280;22981;43.080;25.550;2023-07-31T12:02:38;98992.53;;;28.69;48.50
37066;BME280;22981;43.080;25.550;2023-07-31T12:05:10;98985.05;;;28.54;48.33
37066;BME280;22981;43.080;25.550;2023-07-31T12:07:52;98992.55;;;28.41;48.70
37066;BME280;22981;43.080;25.550;2023-07-31T12:10:30;98987.37;;;28.45;48.61
37066;BME280;22981;43.080;25.550;2023-07-31T12:13:10;98982.77;;;28.50;48.60
37066;BME280;22981;43.080;25.550;2023-07-31T12:15:43;98980.12;;;28.53;48.20
37066;BME280;22981;43.080;25.550;2023-07-31T12:18:13;98980.08;;;28.59;48.09
37066;BME280;22981;43.080;25.550;2023-07-31T12:20:43;98975.58;;;28.67;48.45
37066;BME280;22981;43.080;25.550;2023-07-31T12:23:19;98972.70;;;28.69;48.24
37066;BME280;22981;43.080;25.550;2023-07-31T12:26:07;98968.91;;;28.68;48.46
37066;BME280;22981;43.080;25.550;2023-07-31T12:28:37;98973.98;;;28.60;48.27
37066;BME280;22981;43.080;25.550;2023-07-31T12:31:05;98973.09;;;28.56;48.59
37066;BME280;22981;43.080;25.550;2023-07-31T12:33:35;98966.61;;;28.70;48.77
37066;BME280;22981;43.080;25.550;2023-07-31T12:36:15;98970.75;;;28.70;48.54
37066;BME280;22981;43.080;25.550;2023-07-31T12:38:34;98972.18;;;28.58;48.80
37066;BME280;22981;43.080;25.550;2023-07-31T12:41:04;98964.41;;;28.48;48.71
37066;BME280;22981;43.080;25.550;2023-07-31T12:43:41;98962.95;;;28.44;49.01
37066;BME280;22981;43.080;25.550;2023-07-31T12:46:10;98962.95;;;28.44;49.01
37066;BME280;22981;43.080;25.550;2023-07-31T12:48:38;98962.64;;;28.21;48.96
37066;BME280;22981;43.080;25.550;2023-07-31T12:51:06;98963.47;;;28.09;49.14
37066;BME280;22981;43.080;25.550;2023-07-31T12:53:34;98961.77;;;28.11;49.25
37066;BME280;22981;43.080;25.550;2023-07-31T12:56:02;98963.08;;;28.29;49.20
37066;BME280;22981;43.080;25.550;2023-07-31T12:58:30;98958.78;;;28.50;49.28
37066;BME280;22981;43.080;25.550;2023-07-31T13:00:57;98963.97;;;28.67;48.88
37066;BME280;22981;43.080;25.550;2023-07-31T13:03:27;98960.94;;;28.79;48.66